sensor_id;sensor_type;location;lat;lon;timestamp;pressure;altitude;pressure_sealevel;temperature;humidity
29379;BME280;16362;47.202;15.258;2022-12-11T00:02:08;94504.56;;;0.92;100.00
29379;BME280;16362;47.202;15.258;2022-12-11T00:04:35;94494.72;;;0.94;100.00
29379;BME280;16362;47.202;15.258;2022-12-11T00:07:02;94490.59;;;0.92;100.00
29379;BME280;16362;47.202;15.258;2022-12-11T00:09:28;94506.16;;;0.85;100.00
29379;BME280;16362;47.202;15.258;2022-12-11T00:11:55;94503.53;;;0.85;100.00
29379;BME280;16362;47.202;15.258;2022-12-11T00:14:21;94492.56;;;0.90;100.00
29379;BME280;16362;47.202;15.258;2022-12-11T00:16:48;94501.94;;;0.92;100.00
29379;BME280;16362;47.202;15.258;2022-12-11T00:19:15;94500.28;;;0.91;100.00
29379;BME280;16362;47.202;15.258;2022-12-11T00:21:41;94498.13;;;0.87;100.00
29379;BME280;16362;47.202;15.258;2022-12-11T00:24:08;94489.75;;;0.83;100.00
29379;BME280;16362;47.202;15.258;2022-12-11T00:26:35;94494.72;;;0.94;100.00
29379;BME280;16362;47.202;15.258;2022-12-11T00:29:01;94490.09;;;0.88;100.00
29379;BME280;16362;47.202;15.258;2022-12-11T00:31:28;94499.13;;;0.86;100.00
29379;BME280;16362;47.202;15.258;2022-12-11T00:33:55;94505.97;;;0.78;100.00
29379;BME280;16362;47.202;15.258;2022-12-11T00:36:23;94503.38;;;0.87;100.00
29379;BME280;16362;47.202;15.258;2022-12-11T00:38:50;94493.91;;;0.94;100.00
29379;BME280;16362;47.202;15.258;2022-12-11T00:41:17;94527.41;;;1.00;100.00
29379;BME280;16362;47.202;15.258;2022-12-11T00:43:43;94495.94;;;1.16;100.00
29379;BME280;16362;47.202;15.258;2022-12-11T00:46:10;94514.34;;;1.16;100.00
29379;BME280;16362;47.202;15.258;2022-12-11T00:48:37;94495.09;;;1.16;100.00
29379;BME280;16362;47.202;15.258;2022-12-11T00:51:04;94504.28;;;1.04;100.00
29379;BME280;16362;47.202;15.258;2022-12-11T00:53:31;94492.28;;;1.01;100.00
29379;BME280;16362;47.202;15.258;2022-12-11T00:55:57;94508.78;;;0.85;100.00
29379;BME280;16362;47.202;15.258;2022-12-11T00:58:24;94517.69;;;0.92;100.00
29379;BME280;16362;47.202;15.258;2022-12-11T01:00:50;94527.53;;;0.90;100.00
29379;BME280;16362;47.202;15.258;2022-12-11T01:03:17;94519.97;;;0.87;100.00
29379;BME280;16362;47.202;15.258;2022-12-11T01:05:50;94527.00;;;0.87;100.00
29379;BME280;16362;47.202;15.258;2022-12-11T01:08:18;94536.19;;;0.82;100.00
29379;BME280;16362;47.202;15.258;2022-12-11T01:10:44;94536.66;;;0.78;100.00
29379;BME280;16362;47.202;15.258;2022-12-11T01:13:11;94529.16;;;0.83;100.00
29379;BME280;16362;47.202;15.258;2022-12-11T01:15:39;94531.28;;;0.88;100.00
29379;BME280;16362;47.202;15.258;2022-12-11T01:18:07;94533.56;;;0.82;100.00
29379;BME280;16362;47.202;15.258;2022-12-11T01:20:36;94535.72;;;0.87;100.00
29379;BME280;16362;47.202;15.258;2022-12-11T01:23:02;94541.13;;;0.86;100.00
29379;BME280;16362;47.202;15.258;2022-12-11T01:25:29;94553.59;;;0.83;100.00
29379;BME280;16362;47.202;15.258;2022-12-11T01:27:55;94554.28;;;0.86;100.00
29379;BME280;16362;47.202;15.258;2022-12-11T01:30:22;94557.19;;;0.82;100.00
29379;BME280;16362;47.202;15.258;2022-12-11T01:32:50;94556.22;;;0.83;100.00
29379;BME280;16362;47.202;15.258;2022-12-11T01:35:17;94567.03;;;0.80;100.00
29379;BME280;16362;47.202;15.258;2022-12-11T01:37:44;94572.75;;;0.76;100.00
29379;BME280;16362;47.202;15.258;2022-12-11T01:40:12;94556.88;;;0.77;100.00
29379;BME280;16362;47.202;15.258;2022-12-11T01:42:39;94576.38;;;0.75;100.00
29379;BME280;16362;47.202;15.258;2022-12-11T01:47:51;94572.63;;;0.77;100.00
29379;BME280;16362;47.202;15.258;2022-12-11T01:50:18;94578.31;;;0.73;100.00
29379;BME280;16362;47.202;15.258;2022-12-11T01:52:45;94584.25;;;0.75;100.00
29379;BME280;16362;47.202;15.258;2022-12-11T01:55:13;94582.44;;;0.75;100.00
29379;BME280;16362;47.202;15.258;2022-12-11T01:57:40;94580.78;;;0.74;100.00
29379;BME280;16362;47.202;15.258;2022-12-11T02:00:08;94578.47;;;0.71;100.00
29379;BME280;16362;47.202;15.258;2022-12-11T02:02:35;94579.59;;;0.69;100.00
29379;BME280;16362;47.202;15.258;2022-12-11T02:05:02;94590.63;;;0.72;100.00
29379;BME280;16362;47.202;15.258;2022-12-11T02:07:30;94584.25;;;0.75;100.00
29379;BME280;16362;47.202;15.258;2022-12-11T02:09:59;94573.75;;;0.75;100.00
29379;BME280;16362;47.202;15.258;2022-12-11T02:12:30;94586.19;;;0.73;100.00
29379;BME280;16362;47.202;15.258;2022-12-11T02:15:11;94589.94;;;0.70;100.00
29379;BME280;16362;47.202;15.258;2022-12-11T02:20:37;94598.47;;;0.64;100.00
29379;BME280;16362;47.202;15.258;2022-12-11T02:30:53;94591.88;;;0.60;100.00
29379;BME280;16362;47.202;15.258;2022-12-11T02:33:25;94591.72;;;0.61;100.00
29379;BME280;16362;47.202;15.258;2022-12-11T02:35:52;94592.53;;;0.62;100.00
29379;BME280;16362;47.202;15.258;2022-12-11T02:38:22;94595.84;;;0.64;100.00
29379;BME280;16362;47.202;15.258;2022-12-11T02:40:50;94581.06;;;0.63;100.00
29379;BME280;16362;47.202;15.258;2022-12-11T02:43:18;94591.09;;;0.67;100.00
29379;BME280;16362;47.202;15.258;2022-12-11T02:45:45;94586.34;;;0.71;100.00
29379;BME280;16362;47.202;15.258;2022-12-11T02:48:12;94588.97;;;0.71;100.00
29379;BME280;16362;47.202;15.258;2022-12-11T02:50:41;94588.44;;;0.67;100.00
29379;BME280;16362;47.202;15.258;2022-12-11T02:53:10;94587.47;;;0.69;100.00
29379;BME280;16362;47.202;15.258;2022-12-11T02:55:37;94598.31;;;0.65;100.00
29379;BME280;16362;47.202;15.258;2022-12-11T02:58:07;94599.28;;;0.64;100.00
29379;BME280;16362;47.202;15.258;2022-12-11T03:00:37;94606.28;;;0.56;100.00
29379;BME280;16362;47.202;15.258;2022-12-11T03:03:04;94607.31;;;0.63;100.00
29379;BME280;16362;47.202;15.258;2022-12-11T03:05:30;94614.06;;;0.65;100.00
29379;BME280;16362;47.202;15.258;2022-12-11T03:07:57;94606.19;;;0.65;100.00
29379;BME280;16362;47.202;15.258;2022-12-11T03:10:24;94609.78;;;0.64;100.00
29379;BME280;16362;47.202;15.258;2022-12-11T03:12:51;94611.00;;;0.52;100.00
29379;BME280;16362;47.202;15.258;2022-12-11T03:15:19;94607.09;;;0.56;100.00
29379;BME280;16362;47.202;15.258;2022-12-11T03:18:04;94611.22;;;0.59;100.00
29379;BME280;16362;47.202;15.258;2022-12-11T03:20:40;94609.41;;;0.59;100.00
29379;BME280;16362;47.202;15.258;2022-12-11T03:23:11;94603.03;;;0.62;100.00
29379;BME280;16362;47.202;15.258;2022-12-11T03:25:45;94612.56;;;0.63;100.00
29379;BME280;16362;47.202;15.258;2022-12-11T03:28:17;94604.00;;;0.61;100.00
29379;BME280;16362;47.202;15.258;2022-12-11T03:30:45;94608.59;;;0.59;100.00
29379;BME280;16362;47.202;15.258;2022-12-11T03:33:22;94603.66;;;0.56;100.00
29379;BME280;16362;47.202;15.258;2022-12-11T03:35:56;94600.50;;;0.52;100.00
29379;BME280;16362;47.202;15.258;2022-12-11T03:38:26;94595.78;;;0.56;100.00
29379;BME280;16362;47.202;15.258;2022-12-11T03:40:55;94597.56;;;0.55;100.00
29379;BME280;16362;47.202;15.258;2022-12-11T03:43:24;94599.53;;;0.53;100.00
29379;BME280;16362;47.202;15.258;2022-12-11T03:45:51;94592.47;;;0.54;100.00
29379;BME280;16362;47.202;15.258;2022-12-11T03:48:19;94588.19;;;0.53;100.00
29379;BME280;16362;47.202;15.258;2022-12-11T03:50:46;94592.44;;;0.45;100.00
29379;BME280;16362;47.202;15.258;2022-12-11T03:53:14;94582.59;;;0.47;100.00
29379;BME280;16362;47.202;15.258;2022-12-11T03:55:41;94576.88;;;0.52;100.00
29379;BME280;16362;47.202;15.258;2022-12-11T03:58:08;94579.81;;;0.49;100.00
29379;BME280;16362;47.202;15.258;2022-12-11T04:00:34;94582.91;;;0.44;100.00
29379;BME280;16362;47.202;15.258;2022-12-11T04:03:01;94573.25;;;0.45;100.00
29379;BME280;16362;47.202;15.258;2022-12-11T04:05:42;94571.22;;;0.39;100.00
29379;BME280;16362;47.202;15.258;2022-12-11T04:08:09;94564.69;;;0.43;100.00
29379;BME280;16362;47.202;15.258;2022-12-11T04:10:36;94567.47;;;0.41;100.00
29379;BME280;16362;47.202;15.258;2022-12-11T04:13:02;94572.72;;;0.41;100.00
29379;BME280;16362;47.202;15.258;2022-12-11T04:15:29;94571.53;;;0.36;100.00
29379;BME280;16362;47.202;15.258;2022-12-11T04:17:55;94568.38;;;0.32;100.00
29379;BME280;16362;47.202;15.258;2022-12-11T04:20:41;94565.91;;;0.30;100.00
29379;BME280;16362;47.202;15.258;2022-12-11T04:23:26;94570.63;;;0.27;100.00
29379;BME280;16362;47.202;15.258;2022-12-11T04:26:15;94572.59;;;0.25;100.00
29379;BME280;16362;47.202;15.258;2022-12-11T04:28:42;94573.19;;;0.19;100.00
29379;BME280;16362;47.202;15.258;2022-12-11T04:31:12;94578.28;;;0.20;100.00
29379;BME280;16362;47.202;15.258;2022-12-11T04:33:39;94567.13;;;0.18;100.00
29379;BME280;16362;47.202;15.258;2022-12-11T04:36:06;94574.03;;;0.19;100.00
29379;BME280;16362;47.202;15.258;2022-12-11T04:38:33;94569.75;;;0.18;100.00
29379;BME280;16362;47.202;15.258;2022-12-11T04:41:01;94565.63;;;0.15;100.00
29379;BME280;16362;47.202;15.258;2022-12-11T04:43:28;94574.31;;;0.16;100.00
29379;BME280;16362;47.202;15.258;2022-12-11T04:46:04;94574.16;;;0.17;100.00
29379;BME280;16362;47.202;15.258;2022-12-11T04:48:31;94557.44;;;0.19;100.00
29379;BME280;16362;47.202;15.258;2022-12-11T04:50:58;94559.91;;;0.20;100.00
29379;BME280;16362;47.202;15.258;2022-12-11T04:53:25;94556.00;;;0.24;100.00
29379;BME280;16362;47.202;15.258;2022-12-11T04:55:52;94557.81;;;0.24;100.00
29379;BME280;16362;47.202;15.258;2022-12-11T04:58:18;94556.50;;;0.20;100.00
29379;BME280;16362;47.202;15.258;2022-12-11T05:00:45;94563.59;;;0.27;100.00
29379;BME280;16362;47.202;15.258;2022-12-11T05:03:12;94562.69;;;0.37;100.00
29379;BME280;16362;47.202;15.258;2022-12-11T05:05:38;94571.81;;;0.32;100.00
29379;BME280;16362;47.202;15.258;2022-12-11T05:08:05;94567.41;;;0.33;100.00
29379;BME280;16362;47.202;15.258;2022-12-11T05:10:31;94576.94;;;0.34;100.00
29379;BME280;16362;47.202;15.258;2022-12-11T05:12:58;94566.56;;;0.32;100.00
29379;BME280;16362;47.202;15.258;2022-12-11T05:15:25;94561.78;;;0.28;100.00
29379;BME280;16362;47.202;15.258;2022-12-11T05:17:51;94568.78;;;0.19;100.00
29379;BME280;16362;47.202;15.258;2022-12-11T05:20:18;94575.50;;;0.22;100.00
29379;BME280;16362;47.202;15.258;2022-12-11T05:22:44;94580.00;;;0.29;100.00
29379;BME280;16362;47.202;15.258;2022-12-11T05:25:11;94573.94;;;0.29;100.00
29379;BME280;16362;47.202;15.258;2022-12-11T05:27:38;94572.59;;;0.25;100.00
29379;BME280;16362;47.202;15.258;2022-12-11T05:30:05;94575.06;;;0.26;100.00
29379;BME280;16362;47.202;15.258;2022-12-11T05:32:32;94572.59;;;0.25;100.00
29379;BME280;16362;47.202;15.258;2022-12-11T05:34:58;94582.41;;;0.23;100.00
29379;BME280;16362;47.202;15.258;2022-12-11T05:37:25;94586.53;;;0.25;100.00
29379;BME280;16362;47.202;15.258;2022-12-11T05:39:52;94594.78;;;0.30;100.00
29379;BME280;16362;47.202;15.258;2022-12-11T05:42:18;94590.66;;;0.28;100.00
29379;BME280;16362;47.202;15.258;2022-12-11T05:44:53;94600.56;;;0.34;100.00
29379;BME280;16362;47.202;15.258;2022-12-11T05:47:20;94608.88;;;0.29;100.00
29379;BME280;16362;47.202;15.258;2022-12-11T05:49:46;94605.81;;;0.34;100.00
29379;BME280;16362;47.202;15.258;2022-12-11T05:52:13;94613.63;;;0.26;100.00
29379;BME280;16362;47.202;15.258;2022-12-11T05:54:39;94610.16;;;0.25;100.00
29379;BME280;16362;47.202;15.258;2022-12-11T05:57:06;94617.78;;;0.19;100.00
29379;BME280;16362;47.202;15.258;2022-12-11T05:59:33;94623.19;;;0.17;100.00
29379;BME280;16362;47.202;15.258;2022-12-11T06:01:59;94637.97;;;0.18;100.00
29379;BME280;16362;47.202;15.258;2022-12-11T06:04:26;94626.19;;;0.22;100.00
29379;BME280;16362;47.202;15.258;2022-12-11T06:06:53;94627.31;;;0.20;100.00
29379;BME280;16362;47.202;15.258;2022-12-11T06:09:20;94640.28;;;0.21;98.52
29379;BME280;16362;47.202;15.258;2022-12-11T06:11:46;94638.19;;;0.25;100.00
29379;BME280;16362;47.202;15.258;2022-12-11T06:14:13;94647.09;;;0.32;100.00
29379;BME280;16362;47.202;15.258;2022-12-11T06:16:39;94647.72;;;0.26;100.00
29379;BME280;16362;47.202;15.258;2022-12-11T06:19:06;94647.03;;;0.24;100.00
29379;BME280;16362;47.202;15.258;2022-12-11T06:21:38;94657.75;;;0.30;100.00
29379;BME280;16362;47.202;15.258;2022-12-11T06:24:04;94655.28;;;0.29;100.00
29379;BME280;16362;47.202;15.258;2022-12-11T06:26:31;94665.94;;;0.27;100.00
29379;BME280;16362;47.202;15.258;2022-12-11T06:28:58;94665.09;;;0.27;99.99
29379;BME280;16362;47.202;15.258;2022-12-11T06:31:25;94654.31;;;0.30;100.00
29379;BME280;16362;47.202;15.258;2022-12-11T06:33:51;94660.97;;;0.24;100.00
29379;BME280;16362;47.202;15.258;2022-12-11T06:36:19;94671.63;;;0.23;100.00
29379;BME280;16362;47.202;15.258;2022-12-11T06:38:46;94671.47;;;0.24;100.00
29379;BME280;16362;47.202;15.258;2022-12-11T06:41:13;94677.31;;;0.18;100.00
29379;BME280;16362;47.202;15.258;2022-12-11T06:43:40;94686.53;;;0.22;100.00
29379;BME280;16362;47.202;15.258;2022-12-11T06:46:12;94675.91;;;0.24;100.00
29379;BME280;16362;47.202;15.258;2022-12-11T06:48:39;94674.94;;;0.25;100.00
29379;BME280;16362;47.202;15.258;2022-12-11T06:51:08;94682.13;;;0.23;100.00
29379;BME280;16362;47.202;15.258;2022-12-11T06:53:35;94674.25;;;0.23;100.00
29379;BME280;16362;47.202;15.258;2022-12-11T06:56:03;94676.44;;;0.27;100.00
29379;BME280;16362;47.202;15.258;2022-12-11T06:58:29;94674.63;;;0.28;100.00
29379;BME280;16362;47.202;15.258;2022-12-11T07:00:56;94676.72;;;0.24;100.00
29379;BME280;16362;47.202;15.258;2022-12-11T07:03:23;94671.47;;;0.24;100.00
29379;BME280;16362;47.202;15.258;2022-12-11T07:05:49;94684.88;;;0.21;100.00
29379;BME280;16362;47.202;15.258;2022-12-11T07:08:16;94683.47;;;0.27;99.69
29379;BME280;16362;47.202;15.258;2022-12-11T07:10:43;94690.75;;;0.33;100.00
29379;BME280;16362;47.202;15.258;2022-12-11T07:13:09;94681.91;;;0.34;100.00
29379;BME280;16362;47.202;15.258;2022-12-11T07:15:36;94690.44;;;0.36;91.39
29379;BME280;16362;47.202;15.258;2022-12-11T07:18:05;94692.31;;;0.44;89.79
29379;BME280;16362;47.202;15.258;2022-12-11T07:20:32;94691.69;;;0.50;96.79
29379;BME280;16362;47.202;15.258;2022-12-11T07:22:58;94689.75;;;0.52;94.98
29379;BME280;16362;47.202;15.258;2022-12-11T07:25:25;94694.84;;;0.54;100.00
29379;BME280;16362;47.202;15.258;2022-12-11T07:27:52;94705.66;;;0.50;93.18
29379;BME280;16362;47.202;15.258;2022-12-11T07:30:18;94705.66;;;0.50;92.12
29379;BME280;16362;47.202;15.258;2022-12-11T07:32:45;94697.16;;;0.57;100.00
29379;BME280;16362;47.202;15.258;2022-12-11T07:35:12;94707.44;;;0.50;96.24
29379;BME280;16362;47.202;15.258;2022-12-11T07:37:39;94702.56;;;0.55;97.68
29379;BME280;16362;47.202;15.258;2022-12-11T07:40:06;94698.28;;;0.54;100.00
29379;BME280;16362;47.202;15.258;2022-12-11T07:42:33;94704.22;;;0.56;100.00
29379;BME280;16362;47.202;15.258;2022-12-11T07:44:59;94709.63;;;0.55;100.00
29379;BME280;16362;47.202;15.258;2022-12-11T07:47:26;94715.13;;;0.61;97.92
29379;BME280;16362;47.202;15.258;2022-12-11T07:49:53;94711.63;;;0.61;97.71
29379;BME280;16362;47.202;15.258;2022-12-11T07:52:19;94699.19;;;0.63;95.98
29379;BME280;16362;47.202;15.258;2022-12-11T07:54:46;94711.03;;;0.67;93.83
29379;BME280;16362;47.202;15.258;2022-12-11T07:57:12;94715.91;;;0.62;90.48
29379;BME280;16362;47.202;15.258;2022-12-11T07:59:39;94710.91;;;0.69;79.83
29379;BME280;16362;47.202;15.258;2022-12-11T08:02:08;94717.50;;;0.73;84.59
29379;BME280;16362;47.202;15.258;2022-12-11T08:04:35;94708.31;;;0.77;83.31
29379;BME280;16362;47.202;15.258;2022-12-11T08:07:01;94715.03;;;0.71;83.64
29379;BME280;16362;47.202;15.258;2022-12-11T08:09:28;94719.31;;;0.72;84.82
29379;BME280;16362;47.202;15.258;2022-12-11T08:11:55;94722.75;;;0.73;87.42
29379;BME280;16362;47.202;15.258;2022-12-11T08:14:21;94728.00;;;0.73;83.90
29379;BME280;16362;47.202;15.258;2022-12-11T08:16:48;94732.94;;;0.76;88.40
29379;BME280;16362;47.202;15.258;2022-12-11T08:19:14;94734.91;;;0.74;86.59
29379;BME280;16362;47.202;15.258;2022-12-11T08:21:41;94724.94;;;0.77;81.31
29379;BME280;16362;47.202;15.258;2022-12-11T08:24:08;94732.50;;;0.80;82.32
29379;BME280;16362;47.202;15.258;2022-12-11T08:26:35;94730.09;;;0.87;86.69
29379;BME280;16362;47.202;15.258;2022-12-11T08:29:02;94728.59;;;0.84;82.28
29379;BME280;16362;47.202;15.258;2022-12-11T08:31:28;94732.72;;;0.87;78.67
29379;BME280;16362;47.202;15.258;2022-12-11T08:33:55;94732.56;;;0.89;80.43
29379;BME280;16362;47.202;15.258;2022-12-11T08:36:22;94725.97;;;1.11;85.06
29379;BME280;16362;47.202;15.258;2022-12-11T08:38:49;94735.28;;;1.05;82.93
29379;BME280;16362;47.202;15.258;2022-12-11T08:41:18;94736.28;;;1.04;78.59
29379;BME280;16362;47.202;15.258;2022-12-11T08:43:45;94737.94;;;1.05;76.68
29379;BME280;16362;47.202;15.258;2022-12-11T08:46:12;94727.41;;;1.05;76.00
29379;BME280;16362;47.202;15.258;2022-12-11T08:48:39;94746.13;;;1.02;77.46
29379;BME280;16362;47.202;15.258;2022-12-11T08:51:06;94751.22;;;1.04;76.90
29379;BME280;16362;47.202;15.258;2022-12-11T08:53:33;94747.47;;;1.06;80.26
29379;BME280;16362;47.202;15.258;2022-12-11T08:56:02;94752.72;;;1.06;77.64
29379;BME280;16362;47.202;15.258;2022-12-11T08:58:29;94747.63;;;1.05;77.20
29379;BME280;16362;47.202;15.258;2022-12-11T09:00:56;94745.81;;;1.05;75.19
29379;BME280;16362;47.202;15.258;2022-12-11T09:03:23;94741.53;;;1.04;76.21
29379;BME280;16362;47.202;15.258;2022-12-11T09:05:50;94745.81;;;1.05;80.25
29379;BME280;16362;47.202;15.258;2022-12-11T09:08:16;94737.13;;;1.05;76.15
29379;BME280;16362;47.202;15.258;2022-12-11T09:10:43;94728.75;;;1.09;74.10
29379;BME280;16362;47.202;15.258;2022-12-11T09:13:10;94735.34;;;1.13;74.96
29379;BME280;16362;47.202;15.258;2022-12-11T09:15:38;94724.84;;;1.13;74.54
29379;BME280;16362;47.202;15.258;2022-12-11T09:18:05;94726.19;;;1.17;73.37
29379;BME280;16362;47.202;15.258;2022-12-11T09:20:32;94726.19;;;1.17;75.54
29379;BME280;16362;47.202;15.258;2022-12-11T09:22:59;94725.22;;;1.18;72.12
29379;BME280;16362;47.202;15.258;2022-12-11T09:25:26;94738.19;;;1.20;74.42
29379;BME280;16362;47.202;15.258;2022-12-11T09:27:53;94737.53;;;1.18;72.60
29379;BME280;16362;47.202;15.258;2022-12-11T09:30:19;94732.28;;;1.18;71.93
29379;BME280;16362;47.202;15.258;2022-12-11T09:32:46;94744.41;;;1.19;73.79
29379;BME280;16362;47.202;15.258;2022-12-11T09:35:12;94745.41;;;1.18;73.74
29379;BME280;16362;47.202;15.258;2022-12-11T09:37:39;94738.34;;;1.18;72.53
29379;BME280;16362;47.202;15.258;2022-12-11T09:40:06;94740.00;;;1.20;73.71
29379;BME280;16362;47.202;15.258;2022-12-11T09:45:18;94738.19;;;1.20;71.08
29379;BME280;16362;47.202;15.258;2022-12-11T09:47:49;94741.34;;;1.24;73.30
29379;BME280;16362;47.202;15.258;2022-12-11T09:50:27;94738.41;;;1.27;73.41
29379;BME280;16362;47.202;15.258;2022-12-11T09:55:35;94739.09;;;1.29;71.62
29379;BME280;16362;47.202;15.258;2022-12-11T09:58:28;94741.03;;;1.27;67.76
29379;BME280;16362;47.202;15.258;2022-12-11T10:03:43;94731.16;;;1.21;66.77
29379;BME280;16362;47.202;15.258;2022-12-11T10:06:27;94743.28;;;1.22;67.07
29379;BME280;16362;47.202;15.258;2022-12-11T10:14:30;94737.53;;;1.18;68.61
29379;BME280;16362;47.202;15.258;2022-12-11T10:17:01;94735.72;;;1.18;68.95
29379;BME280;16362;47.202;15.258;2022-12-11T10:19:30;94740.00;;;1.20;70.40
29379;BME280;16362;47.202;15.258;2022-12-11T10:21:57;94736.53;;;1.19;67.99
29379;BME280;16362;47.202;15.258;2022-12-11T10:27:21;94738.41;;;1.27;67.21
29379;BME280;16362;47.202;15.258;2022-12-11T10:29:58;94735.97;;;1.33;70.04
29379;BME280;16362;47.202;15.258;2022-12-11T10:35:16;94735.97;;;1.33;66.52
29379;BME280;16362;47.202;15.258;2022-12-11T10:37:43;94738.44;;;1.35;68.46
29379;BME280;16362;47.202;15.258;2022-12-11T10:40:11;94738.28;;;1.37;68.94
29379;BME280;16362;47.202;15.258;2022-12-11T10:42:38;94750.63;;;1.36;68.83
29379;BME280;16362;47.202;15.258;2022-12-11T10:45:14;94747.63;;;1.31;66.70
29379;BME280;16362;47.202;15.258;2022-12-11T10:47:41;94739.84;;;1.21;66.40
29379;BME280;16362;47.202;15.258;2022-12-11T10:50:20;94749.53;;;1.21;66.14
29379;BME280;16362;47.202;15.258;2022-12-11T10:52:47;94747.19;;;1.17;66.58
29379;BME280;16362;47.202;15.258;2022-12-11T10:55:56;94758.56;;;1.18;66.95
29379;BME280;16362;47.202;15.258;2022-12-11T10:58:04;94756.91;;;1.17;68.89
29379;BME280;16362;47.202;15.258;2022-12-11T11:00:35;94756.38;;;1.13;67.41
29379;BME280;16362;47.202;15.258;2022-12-11T11:03:04;94756.38;;;1.13;68.42
29379;BME280;16362;47.202;15.258;2022-12-11T11:05:35;94744.38;;;1.11;67.39
29379;BME280;16362;47.202;15.258;2022-12-11T11:08:13;94746.19;;;1.10;68.19
29379;BME280;16362;47.202;15.258;2022-12-11T11:13:16;94728.75;;;1.09;68.51
29379;BME280;16362;47.202;15.258;2022-12-11T11:15:42;94734.84;;;1.10;68.11
29379;BME280;16362;47.202;15.258;2022-12-11T11:18:11;94725.31;;;1.09;70.15
29379;BME280;16362;47.202;15.258;2022-12-11T11:20:46;94736.44;;;1.03;65.03
29379;BME280;16362;47.202;15.258;2022-12-11T11:23:13;94723.91;;;0.96;67.03
29379;BME280;16362;47.202;15.258;2022-12-11T11:28:17;94712.56;;;0.96;67.87
29379;BME280;16362;47.202;15.258;2022-12-11T11:33:31;94705.91;;;1.02;69.02
29379;BME280;16362;47.202;15.258;2022-12-11T11:36:00;94709.03;;;1.05;67.96
29379;BME280;16362;47.202;15.258;2022-12-11T11:42:01;94712.84;;;1.11;65.91
29379;BME280;16362;47.202;15.258;2022-12-11T11:44:38;94712.72;;;1.12;67.11
29379;BME280;16362;47.202;15.258;2022-12-11T11:47:16;94714.66;;;1.10;67.68
29379;BME280;16362;47.202;15.258;2022-12-11T11:52:14;94716.31;;;1.11;67.42
29379;BME280;16362;47.202;15.258;2022-12-11T11:57:14;94716.75;;;1.07;66.18
29379;BME280;16362;47.202;15.258;2022-12-11T11:59:49;94721.66;;;1.02;66.18
29379;BME280;16362;47.202;15.258;2022-12-11T12:02:18;94713.41;;;0.96;66.30
29379;BME280;16362;47.202;15.258;2022-12-11T12:04:45;94713.56;;;0.95;67.28
29379;BME280;16362;47.202;15.258;2022-12-11T12:07:16;94720.91;;;0.91;65.23
29379;BME280;16362;47.202;15.258;2022-12-11T12:12:24;94712.34;;;0.89;63.93
29379;BME280;16362;47.202;15.258;2022-12-11T12:15:20;94720.41;;;0.88;66.12
29379;BME280;16362;47.202;15.258;2022-12-11T12:17:57;94715.44;;;0.84;63.62
29379;BME280;16362;47.202;15.258;2022-12-11T12:20:31;94712.44;;;0.79;63.27
29379;BME280;16362;47.202;15.258;2022-12-11T12:33:37;94714.38;;;0.69;64.27
29379;BME280;16362;47.202;15.258;2022-12-11T12:38:57;94710.66;;;0.62;66.11
29379;BME280;16362;47.202;15.258;2022-12-11T12:44:01;94715.69;;;0.55;63.77
29379;BME280;16362;47.202;15.258;2022-12-11T12:49:02;94711.06;;;0.49;65.99
29379;BME280;16362;47.202;15.258;2022-12-11T12:51:32;94718.41;;;0.45;64.23
29379;BME280;16362;47.202;15.258;2022-12-11T12:54:00;94725.91;;;0.40;63.28
29379;BME280;16362;47.202;15.258;2022-12-11T12:56:35;94719.63;;;0.33;64.68
29379;BME280;16362;47.202;15.258;2022-12-11T12:59:03;94726.94;;;0.29;64.61
29379;BME280;16362;47.202;15.258;2022-12-11T13:01:29;94726.56;;;0.24;65.33
29379;BME280;16362;47.202;15.258;2022-12-11T13:04:01;94733.94;;;0.21;65.90
29379;BME280;16362;47.202;15.258;2022-12-11T13:09:22;94738.47;;;0.19;67.95
29379;BME280;16362;47.202;15.258;2022-12-11T13:11:50;94738.63;;;0.17;67.07
29379;BME280;16362;47.202;15.258;2022-12-11T13:16:49;94743.25;;;0.05;68.43
29379;BME280;16362;47.202;15.258;2022-12-11T13:19:17;94744.53;;;0.01;69.10
29379;BME280;16362;47.202;15.258;2022-12-11T13:22:01;94759.06;;;-0.05;70.43
29379;BME280;16362;47.202;15.258;2022-12-11T13:24:32;94755.63;;;-0.05;71.17
29379;BME280;16362;47.202;15.258;2022-12-11T13:27:09;94749.69;;;-0.07;71.13
29379;BME280;16362;47.202;15.258;2022-12-11T13:29:37;94757.84;;;-0.10;70.19
29379;BME280;16362;47.202;15.258;2022-12-11T13:34:43;94765.78;;;-0.20;68.71
29379;BME280;16362;47.202;15.258;2022-12-11T13:37:22;94773.09;;;-0.24;69.15
29379;BME280;16362;47.202;15.258;2022-12-11T13:39:50;94769.78;;;-0.26;70.49
29379;BME280;16362;47.202;15.258;2022-12-11T13:44:52;94777.81;;;-0.37;70.84
29379;BME280;16362;47.202;15.258;2022-12-11T13:47:19;94781.25;;;-0.37;71.35
29379;BME280;16362;47.202;15.258;2022-12-11T13:49:47;94781.41;;;-0.38;71.54
29379;BME280;16362;47.202;15.258;2022-12-11T13:52:18;94785.28;;;-0.42;71.95
29379;BME280;16362;47.202;15.258;2022-12-11T13:54:46;94796.63;;;-0.42;70.47
29379;BME280;16362;47.202;15.258;2022-12-11T13:57:20;94797.13;;;-0.38;73.47
29379;BME280;16362;47.202;15.258;2022-12-11T13:59:51;94799.25;;;-0.42;71.94
29379;BME280;16362;47.202;15.258;2022-12-11T14:05:01;94807.50;;;-0.46;72.20
29379;BME280;16362;47.202;15.258;2022-12-11T14:07:32;94807.94;;;-0.51;73.49
29379;BME280;16362;47.202;15.258;2022-12-11T14:10:01;94810.72;;;-0.53;72.58
29379;BME280;16362;47.202;15.258;2022-12-11T14:12:30;94809.88;;;-0.53;72.06
29379;BME280;16362;47.202;15.258;2022-12-11T14:14:58;94812.66;;;-0.55;73.21
29379;BME280;16362;47.202;15.258;2022-12-11T14:17:28;94820.50;;;-0.55;74.74
29379;BME280;16362;47.202;15.258;2022-12-11T14:19:56;94821.34;;;-0.64;74.32
29379;BME280;16362;47.202;15.258;2022-12-11T14:22:27;94826.19;;;-0.69;74.10
29379;BME280;16362;47.202;15.258;2022-12-11T14:24:54;94828.28;;;-0.73;74.57